Time;durP1;ratioP1;P1;durP2;ratioP2;P2;SDS_P1;SDS_P2;PMS_P1;PMS_P2;Temp;Humidity;BMP_temperature;BMP_pressure;BME280_temperature;BME280_humidity;BME280_pressure;Samples;Min_cycle;Max_cycle;Signal;HPM_P1;HPM_P2
2021/03/30 00:01:05;;;;;;;20.10;11.10;;;10.50;99.90;;;;;;5026078;28;20192;-49
2021/03/30 00:03:31;;;;;;;23.87;10.67;;;10.50;99.90;;;;;;5019347;28;20587;-48
2021/03/30 00:05:57;;;;;;;22.80;11.57;;;10.50;99.90;;;;;;5026375;28;20208;-49
2021/03/30 00:08:23;;;;;;;21.17;11.33;;;10.50;99.90;;;;;;5022102;28;20212;-53
2021/03/30 00:10:51;;;;;;;21.13;12.40;;;10.50;99.90;;;;;;5025787;28;20196;-52
2021/03/30 00:13:17;;;;;;;19.17;10.83;;;10.50;99.90;;;;;;5009789;28;20222;-48
2021/03/30 00:15:43;;;;;;;22.07;12.10;;;10.50;99.90;;;;;;5025754;28;20648;-47
2021/03/30 00:18:10;;;;;;;22.70;12.03;;;10.50;99.90;;;;;;5024708;28;20696;-53
2021/03/30 00:20:36;;;;;;;22.60;11.23;;;10.40;99.90;;;;;;5023858;28;20214;-46
2021/03/30 00:23:03;;;;;;;20.40;11.30;;;10.40;99.90;;;;;;5025443;28;20276;-46
2021/03/30 00:25:29;;;;;;;21.80;11.33;;;10.40;99.90;;;;;;5019830;28;20541;-49
2021/03/30 00:27:56;;;;;;;22.73;11.50;;;10.40;99.90;;;;;;5024177;28;20262;-47
2021/03/30 00:30:23;;;;;;;21.13;11.30;;;10.40;99.90;;;;;;5021234;28;20214;-47
2021/03/30 00:32:49;;;;;;;19.90;12.20;;;10.40;99.90;;;;;;5025430;28;20198;-50
2021/03/30 00:35:15;;;;;;;18.53;11.13;;;10.40;99.90;;;;;;5022740;28;20190;-53
2021/03/30 00:37:42;;;;;;;25.23;10.70;;;10.40;99.90;;;;;;5019915;28;20657;-49
2021/03/30 00:40:11;;;;;;;18.93;10.30;;;10.40;99.90;;;;;;5023449;28;20230;-52
2021/03/30 00:42:38;;;;;;;20.60;10.27;;;10.40;99.90;;;;;;5003784;28;20200;-46
2021/03/30 00:45:07;;;;;;;15.83;9.80;;;10.40;99.90;;;;;;5010872;28;20208;-47
2021/03/30 00:47:34;;;;;;;17.00;9.47;;;10.40;99.90;;;;;;5022725;28;20299;-49
2021/03/30 00:50:01;;;;;;;17.70;9.40;;;10.40;99.90;;;;;;5024971;28;20220;-49
2021/03/30 00:52:28;;;;;;;16.43;9.23;;;10.40;99.90;;;;;;5021088;28;20915;-48
2021/03/30 00:55:14;;;;;;;14.60;8.27;;;10.40;99.90;;;;;;5025709;28;20207;-51
2021/03/30 00:57:45;;;;;;;19.30;9.20;;;10.40;99.90;;;;;;5020610;28;20204;-50
2021/03/30 01:00:14;;;;;;;15.90;8.97;;;10.40;99.90;;;;;;5009925;28;20613;-50
2021/03/30 01:02:41;;;;;;;16.10;8.47;;;10.40;99.90;;;;;;5017627;28;21322;-52
2021/03/30 01:05:09;;;;;;;15.37;8.30;;;10.40;99.90;;;;;;5023775;28;20192;-50
2021/03/30 01:07:36;;;;;;;12.57;7.77;;;10.40;99.90;;;;;;5022471;28;20212;-52
2021/03/30 01:10:15;;;;;;;14.20;6.80;;;10.40;99.90;;;;;;5023593;28;20219;-55
2021/03/30 01:12:54;;;;;;;14.60;7.70;;;10.40;99.90;;;;;;5023927;28;20195;-51
2021/03/30 01:15:31;;;;;;;13.73;6.97;;;10.40;99.90;;;;;;5007136;28;20210;-53
2021/03/30 01:18:04;;;;;;;14.40;7.17;;;10.40;99.90;;;;;;5024517;28;20282;-50
2021/03/30 01:21:17;;;;;;;13.47;6.43;;;10.40;99.90;;;;;;5021368;28;20946;-50
2021/03/30 01:24:11;;;;;;;10.67;5.93;;;10.30;99.90;;;;;;5023853;28;20200;-47
2021/03/30 01:26:48;;;;;;;14.97;6.07;;;10.30;99.90;;;;;;5015095;28;20211;-47
2021/03/30 01:29:39;;;;;;;13.23;5.83;;;10.30;99.90;;;;;;5021483;28;20212;-50
2021/03/30 01:32:09;;;;;;;12.40;6.67;;;10.20;99.90;;;;;;5008613;28;20226;-45
2021/03/30 01:34:36;;;;;;;12.37;6.73;;;10.20;99.90;;;;;;5010489;28;20192;-47
2021/03/30 01:37:04;;;;;;;13.73;5.50;;;10.20;99.90;;;;;;5022836;28;20202;-47
2021/03/30 01:39:31;;;;;;;14.63;6.23;;;10.10;99.90;;;;;;5012176;28;20270;-48
2021/03/30 01:41:58;;;;;;;14.37;6.53;;;10.10;99.90;;;;;;5019762;28;20218;-47
2021/03/30 01:44:26;;;;;;;10.77;6.13;;;10.10;99.90;;;;;;5019990;28;20202;-50
2021/03/30 01:46:54;;;;;;;9.67;5.73;;;10.10;99.90;;;;;;5005592;28;20212;-48
2021/03/30 01:49:22;;;;;;;20.33;6.50;;;10.10;99.90;;;;;;5024595;28;20220;-51
2021/03/30 01:51:50;;;;;;;13.40;6.70;;;10.00;99.90;;;;;;5020684;28;20274;-52
2021/03/30 01:54:17;;;;;;;14.60;7.53;;;10.00;99.90;;;;;;5024462;28;20211;-47
2021/03/30 01:56:45;;;;;;;17.60;7.17;;;10.00;99.90;;;;;;5002817;28;20216;-48
2021/03/30 01:59:15;;;;;;;14.83;7.20;;;10.00;99.90;;;;;;5021528;28;20739;-46
2021/03/30 02:01:45;;;;;;;14.17;7.37;;;10.00;99.90;;;;;;5003343;28;20838;-54
2021/03/30 02:04:12;;;;;;;14.57;7.23;;;10.00;99.90;;;;;;5038202;28;20212;-48
2021/03/30 02:06:42;;;;;;;17.73;6.37;;;10.00;99.90;;;;;;5020844;28;20214;-51
2021/03/30 02:09:13;;;;;;;11.23;6.90;;;10.00;99.90;;;;;;5023370;28;20254;-47
2021/03/30 02:11:44;;;;;;;14.40;7.07;;;10.00;99.90;;;;;;5016482;28;20196;-52
2021/03/30 02:14:12;;;;;;;10.20;6.13;;;10.00;99.90;;;;;;5023393;28;20203;-50
2021/03/30 02:16:44;;;;;;;14.67;6.60;;;9.90;99.90;;;;;;5024250;28;20195;-51
2021/03/30 02:19:16;;;;;;;10.73;6.50;;;9.90;99.90;;;;;;5022670;28;20247;-51
2021/03/30 02:21:45;;;;;;;13.60;6.50;;;10.00;99.90;;;;;;5019640;28;20665;-49
2021/03/30 02:24:13;;;;;;;14.13;6.43;;;9.90;99.90;;;;;;5023328;28;20673;-50
2021/03/30 02:26:41;;;;;;;15.00;6.50;;;9.90;99.90;;;;;;5020424;28;20208;-51
2021/03/30 02:29:10;;;;;;;11.60;5.33;;;9.90;99.90;;;;;;5022508;28;20254;-46
2021/03/30 02:31:38;;;;;;;17.53;7.03;;;9.90;99.90;;;;;;5021130;28;20203;-50
2021/03/30 02:34:07;;;;;;;13.27;6.87;;;9.90;99.90;;;;;;5008281;28;20528;-47
2021/03/30 02:36:34;;;;;;;10.43;6.37;;;9.90;99.90;;;;;;5022775;28;20199;-47
2021/03/30 02:39:06;;;;;;;13.27;6.20;;;9.90;99.90;;;;;;5016133;28;20306;-50
2021/03/30 02:41:35;;;;;;;14.17;6.63;;;9.90;99.90;;;;;;5021994;28;20567;-50
2021/03/30 02:44:02;;;;;;;9.03;5.50;;;9.90;99.90;;;;;;5021139;28;20281;-50
2021/03/30 02:46:31;;;;;;;8.50;6.10;;;9.90;99.90;;;;;;5020161;28;20226;-51
2021/03/30 02:49:00;;;;;;;10.90;6.10;;;9.90;99.90;;;;;;5005982;28;20341;-51
2021/03/30 02:51:28;;;;;;;12.57;6.33;;;9.90;99.90;;;;;;5022981;28;20196;-49
2021/03/30 02:53:56;;;;;;;14.63;5.77;;;9.90;99.90;;;;;;5017497;28;20196;-49
2021/03/30 02:56:23;;;;;;;14.30;6.10;;;9.90;99.90;;;;;;5025237;28;20330;-51
2021/03/30 02:58:51;;;;;;;14.10;6.77;;;9.90;99.90;;;;;;5018906;28;20300;-48
2021/03/30 03:01:17;;;;;;;13.67;6.50;;;9.90;99.90;;;;;;5018061;28;20227;-51
2021/03/30 03:03:44;;;;;;;15.10;6.47;;;9.90;99.90;;;;;;5019821;28;20283;-50
2021/03/30 03:06:12;;;;;;;8.67;5.47;;;9.80;99.90;;;;;;5007501;28;20693;-49
2021/03/30 03:08:39;;;;;;;12.57;5.53;;;9.80;99.90;;;;;;5012291;28;20835;-48
2021/03/30 03:11:07;;;;;;;10.70;5.83;;;9.80;99.90;;;;;;5021508;28;20831;-46
2021/03/30 03:13:35;;;;;;;10.00;5.83;;;9.80;99.90;;;;;;5020223;28;20196;-49
2021/03/30 03:16:01;;;;;;;12.20;5.80;;;9.80;99.90;;;;;;5017495;28;20249;-50
2021/03/30 03:18:29;;;;;;;14.60;6.40;;;9.80;99.90;;;;;;5022119;28;20295;-50
2021/03/30 03:20:55;;;;;;;13.03;5.60;;;9.80;99.90;;;;;;5005619;28;20265;-47
2021/03/30 03:23:22;;;;;;;13.87;6.17;;;9.70;99.90;;;;;;5022568;28;20203;-47
2021/03/30 03:25:48;;;;;;;10.10;6.20;;;9.70;99.90;;;;;;5018549;28;20226;-48
2021/03/30 03:28:15;;;;;;;9.40;5.87;;;9.70;99.90;;;;;;5022168;28;20269;-51
2021/03/30 03:30:43;;;;;;;9.87;5.43;;;9.70;99.90;;;;;;5018953;28;20199;-46
2021/03/30 03:33:10;;;;;;;10.23;5.57;;;9.70;99.90;;;;;;5021983;28;20597;-50
2021/03/30 03:35:37;;;;;;;9.07;5.23;;;9.70;99.90;;;;;;5018998;28;20596;-47
2021/03/30 03:38:04;;;;;;;12.47;6.07;;;9.70;99.90;;;;;;5013973;28;20188;-48
2021/03/30 03:40:31;;;;;;;17.37;5.97;;;9.70;99.90;;;;;;5021383;28;20200;-50
2021/03/30 03:42:58;;;;;;;12.57;5.67;;;9.60;99.90;;;;;;5019870;28;20188;-50
2021/03/30 03:45:25;;;;;;;8.93;5.47;;;9.60;99.90;;;;;;5017936;28;20282;-52
2021/03/30 03:47:51;;;;;;;10.23;5.57;;;9.50;99.90;;;;;;5019340;28;20985;-51
2021/03/30 03:50:18;;;;;;;13.60;6.00;;;9.50;99.90;;;;;;5022315;28;20200;-49
2021/03/30 03:52:47;;;;;;;13.70;6.10;;;9.50;99.90;;;;;;5005893;28;20216;-49
2021/03/30 03:55:15;;;;;;;12.73;5.37;;;9.50;99.90;;;;;;5026502;28;20196;-51
2021/03/30 03:57:48;;;;;;;9.70;5.83;;;9.50;99.90;;;;;;5019378;28;20653;-52
2021/03/30 04:00:15;;;;;;;10.07;6.10;;;9.50;99.90;;;;;;5022198;28;20576;-51
2021/03/30 04:02:46;;;;;;;13.27;5.57;;;9.50;99.90;;;;;;5019209;28;20279;-50
2021/03/30 04:05:16;;;;;;;14.97;5.83;;;9.50;99.90;;;;;;5024916;28;20200;-50
2021/03/30 04:07:48;;;;;;;9.53;5.97;;;9.40;99.90;;;;;;5002042;28;20251;-52
2021/03/30 04:10:18;;;;;;;16.90;6.10;;;9.40;99.90;;;;;;5022514;28;20196;-49
2021/03/30 04:12:45;;;;;;;14.73;6.40;;;9.40;99.90;;;;;;5019269;28;20195;-50
2021/03/30 04:15:12;;;;;;;10.53;4.97;;;9.30;99.90;;;;;;5018276;28;20200;-48
2021/03/30 04:17:40;;;;;;;12.43;6.13;;;9.30;99.90;;;;;;5020013;28;20203;-51
2021/03/30 04:20:09;;;;;;;14.27;5.77;;;9.30;99.90;;;;;;5021313;28;20800;-51
2021/03/30 04:22:36;;;;;;;14.40;5.60;;;9.30;99.90;;;;;;5012996;28;20245;-55
2021/03/30 04:25:04;;;;;;;10.67;5.97;;;9.30;99.90;;;;;;5014534;28;20294;-46
2021/03/30 04:27:31;;;;;;;15.53;5.83;;;9.30;99.90;;;;;;5021578;28;20216;-52
2021/03/30 04:29:57;;;;;;;6.53;4.93;;;9.30;99.90;;;;;;5022707;28;20200;-47
2021/03/30 04:32:24;;;;;;;11.33;5.50;;;9.30;99.90;;;;;;5025882;28;20700;-48
2021/03/30 04:34:50;;;;;;;12.20;5.57;;;9.30;99.90;;;;;;5021794;28;20996;-47
2021/03/30 04:37:17;;;;;;;9.03;5.57;;;9.30;99.90;;;;;;5021138;28;20196;-50
2021/03/30 04:39:43;;;;;;;13.17;5.57;;;9.30;99.90;;;;;;5007496;28;20242;-53
2021/03/30 04:42:09;;;;;;;10.20;5.50;;;9.30;99.90;;;;;;5020637;28;20196;-49
2021/03/30 04:44:36;;;;;;;10.30;6.13;;;9.30;99.90;;;;;;5023656;28;20203;-52
2021/03/30 04:47:02;;;;;;;10.53;5.23;;;9.30;99.90;;;;;;5022489;28;20968;-49
2021/03/30 04:49:28;;;;;;;12.73;5.47;;;9.30;99.90;;;;;;5017374;28;20235;-52
2021/03/30 04:51:55;;;;;;;9.77;5.13;;;9.20;99.90;;;;;;5038082;28;20192;-48
2021/03/30 04:54:22;;;;;;;9.93;5.73;;;9.20;99.90;;;;;;5023857;28;20315;-52
2021/03/30 04:56:48;;;;;;;12.00;5.87;;;9.20;99.90;;;;;;5010843;28;20192;-50
2021/03/30 04:59:14;;;;;;;8.87;5.33;;;9.20;99.90;;;;;;5020703;28;20270;-47
2021/03/30 05:01:40;;;;;;;9.63;5.33;;;9.10;99.90;;;;;;5021722;28;20984;-48
2021/03/30 05:04:07;;;;;;;13.67;5.37;;;9.10;99.90;;;;;;5025412;28;20743;-52
2021/03/30 05:06:33;;;;;;;11.03;5.77;;;9.10;99.90;;;;;;5021392;28;20224;-49
2021/03/30 05:09:00;;;;;;;14.70;5.20;;;9.10;99.90;;;;;;5023942;28;20275;-47
2021/03/30 05:11:27;;;;;;;12.53;5.10;;;9.00;99.90;;;;;;5010261;28;20611;-51
2021/03/30 05:13:53;;;;;;;14.60;5.67;;;9.10;99.90;;;;;;5012006;28;20253;-48
2021/03/30 05:16:19;;;;;;;10.10;5.63;;;9.00;99.90;;;;;;5024554;28;20284;-53
2021/03/30 05:18:45;;;;;;;12.03;5.47;;;9.00;99.90;;;;;;5021070;28;20212;-51
2021/03/30 05:21:11;;;;;;;13.53;5.50;;;9.00;99.90;;;;;;5025413;28;20192;-51
2021/03/30 05:23:38;;;;;;;14.03;5.77;;;9.00;99.90;;;;;;5011894;28;20208;-50
2021/03/30 05:26:05;;;;;;;10.37;5.73;;;9.00;99.90;;;;;;5023991;28;20196;-50
2021/03/30 05:28:32;;;;;;;8.47;5.83;;;9.00;99.90;;;;;;5009018;28;20239;-47
2021/03/30 05:30:58;;;;;;;10.63;6.07;;;9.00;99.90;;;;;;5018372;28;20194;-50
2021/03/30 05:33:24;;;;;;;15.10;5.97;;;9.00;99.90;;;;;;5005297;28;20209;-48
2021/03/30 05:35:50;;;;;;;12.83;5.70;;;9.00;99.90;;;;;;5019225;28;20203;-50
2021/03/30 05:38:17;;;;;;;13.47;6.73;;;9.00;99.90;;;;;;5018659;28;20458;-53
2021/03/30 05:40:43;;;;;;;13.37;6.37;;;9.00;99.90;;;;;;5024447;28;20188;-52
2021/03/30 05:43:10;;;;;;;14.93;6.43;;;9.00;99.90;;;;;;5004720;28;20343;-52
2021/03/30 05:45:37;;;;;;;14.13;6.83;;;9.10;99.90;;;;;;5024310;28;20200;-52
2021/03/30 05:48:08;;;;;;;14.97;6.87;;;9.10;99.90;;;;;;5020069;28;20290;-52
2021/03/30 05:50:35;;;;;;;17.40;6.60;;;9.10;99.90;;;;;;5024981;28;20203;-49
2021/03/30 05:53:06;;;;;;;11.20;6.50;;;9.20;99.90;;;;;;5017693;28;20200;-54
2021/03/30 05:55:34;;;;;;;10.80;6.57;;;9.20;99.90;;;;;;5016895;28;20197;-50
2021/03/30 05:58:04;;;;;;;15.20;6.90;;;9.20;99.90;;;;;;4992161;28;20197;-52
2021/03/30 06:00:33;;;;;;;8.03;5.90;;;9.20;99.90;;;;;;5022572;28;20287;-51
2021/03/30 06:03:03;;;;;;;14.27;6.37;;;9.30;99.90;;;;;;5018155;28;20208;-53
2021/03/30 06:05:30;;;;;;;12.47;6.80;;;9.40;99.90;;;;;;5021469;28;20235;-50
2021/03/30 06:07:59;;;;;;;17.83;7.33;;;9.50;99.90;;;;;;5018250;28;20372;-54
2021/03/30 06:10:27;;;;;;;12.40;7.43;;;9.60;99.90;;;;;;5020348;28;20215;-50
2021/03/30 06:12:54;;;;;;;14.90;7.40;;;9.60;99.90;;;;;;5021318;28;20242;-53
2021/03/30 06:15:25;;;;;;;12.77;6.90;;;9.70;99.90;;;;;;5003056;28;20196;-52
2021/03/30 06:17:51;;;;;;;14.93;6.87;;;9.70;99.90;;;;;;5021084;28;20195;-53
2021/03/30 06:20:28;;;;;;;13.57;7.17;;;9.80;99.90;;;;;;5017218;28;20701;-51
2021/03/30 06:22:56;;;;;;;13.90;7.50;;;9.90;99.90;;;;;;4995380;28;20284;-52
2021/03/30 06:25:50;;;;;;;13.37;7.80;;;10.00;99.90;;;;;;5002320;28;20200;-49
2021/03/30 06:28:19;;;;;;;12.83;8.57;;;10.10;99.90;;;;;;4996349;28;20297;-51
2021/03/30 06:30:59;;;;;;;15.23;7.00;;;10.10;99.90;;;;;;4998642;28;20220;-47
2021/03/30 06:33:26;;;;;;;15.00;7.67;;;10.30;99.90;;;;;;5014865;28;20194;-49
2021/03/30 06:36:11;;;;;;;14.03;7.23;;;10.40;99.90;;;;;;5017684;28;20874;-51
2021/03/30 06:38:57;;;;;;;12.03;7.23;;;10.50;99.90;;;;;;5015474;28;20324;-50
2021/03/30 06:41:34;;;;;;;11.47;7.33;;;10.60;99.90;;;;;;5016649;28;20223;-52
2021/03/30 06:44:27;;;;;;;17.03;7.90;;;10.60;99.90;;;;;;5004383;28;20207;-47
2021/03/30 06:46:56;;;;;;;15.87;8.17;;;10.70;99.90;;;;;;5000093;28;20212;-46
2021/03/30 06:49:24;;;;;;;12.93;8.73;;;10.80;99.90;;;;;;5014482;28;20212;-51
2021/03/30 06:51:51;;;;;;;15.33;8.00;;;10.90;99.90;;;;;;5017842;28;20208;-53
2021/03/30 06:54:18;;;;;;;11.17;7.63;;;11.00;99.90;;;;;;5021962;28;20279;-50
2021/03/30 06:56:50;;;;;;;11.53;7.40;;;11.10;99.90;;;;;;5015447;28;20203;-51
2021/03/30 06:59:16;;;;;;;13.07;7.77;;;11.20;99.90;;;;;;5018965;28;20283;-50
2021/03/30 07:01:44;;;;;;;14.40;7.77;;;11.20;99.90;;;;;;5003289;28;20273;-48
2021/03/30 07:04:11;;;;;;;13.63;7.47;;;11.30;99.90;;;;;;5021854;28;20192;-49
2021/03/30 07:06:38;;;;;;;16.73;7.57;;;11.40;99.90;;;;;;5012315;28;20216;-49
2021/03/30 07:09:08;;;;;;;12.70;7.53;;;11.40;99.90;;;;;;5013819;28;20222;-53
2021/03/30 07:11:37;;;;;;;19.33;9.30;;;11.50;99.90;;;;;;5013856;28;20955;-47
2021/03/30 07:14:03;;;;;;;17.57;8.30;;;11.50;99.90;;;;;;5049007;28;20199;-48
2021/03/30 07:16:32;;;;;;;16.17;7.70;;;11.60;99.90;;;;;;4998961;28;20192;-51
2021/03/30 07:19:00;;;;;;;15.33;7.40;;;11.60;99.90;;;;;;5007372;28;20227;-45
2021/03/30 07:21:27;;;;;;;12.00;8.67;;;11.70;99.90;;;;;;5008848;28;20204;-51
2021/03/30 07:23:56;;;;;;;12.93;7.70;;;11.70;99.90;;;;;;5021781;28;20755;-47
2021/03/30 07:26:29;;;;;;;13.90;7.70;;;11.80;99.90;;;;;;5012857;28;20200;-50
2021/03/30 07:29:04;;;;;;;15.47;7.83;;;11.90;99.90;;;;;;5020460;28;20224;-51
2021/03/30 07:31:37;;;;;;;15.77;7.47;;;11.90;99.90;;;;;;5003212;28;22274;-50
2021/03/30 07:34:07;;;;;;;14.03;8.23;;;12.00;99.90;;;;;;5012390;28;20692;-50
2021/03/30 07:36:38;;;;;;;15.37;8.27;;;12.10;99.90;;;;;;5007247;28;20285;-48
2021/03/30 07:39:06;;;;;;;12.47;7.57;;;12.10;99.90;;;;;;5022201;28;20580;-51
2021/03/30 07:41:34;;;;;;;12.20;7.33;;;12.20;99.90;;;;;;5013190;28;20212;-45
2021/03/30 07:44:03;;;;;;;18.90;8.80;;;12.30;99.90;;;;;;5022312;28;20204;-47
2021/03/30 07:46:31;;;;;;;11.80;7.67;;;12.30;99.90;;;;;;5018645;28;20243;-49
2021/03/30 07:48:59;;;;;;;15.67;6.93;;;12.40;99.90;;;;;;5007913;28;20281;-47
2021/03/30 07:51:34;;;;;;;13.60;7.23;;;12.50;99.90;;;;;;5019122;28;20200;-50
2021/03/30 07:54:08;;;;;;;9.63;6.90;;;12.70;99.90;;;;;;5017299;28;20214;-46
2021/03/30 07:56:53;;;;;;;13.13;7.70;;;12.70;99.90;;;;;;5018428;28;20314;-50
2021/03/30 07:59:46;;;;;;;15.13;7.80;;;12.80;99.90;;;;;;5015479;28;20652;-51
2021/03/30 08:02:16;;;;;;;17.50;8.60;;;12.90;99.90;;;;;;5021000;28;20287;-47
2021/03/30 08:05:10;;;;;;;14.40;7.60;;;13.00;99.90;;;;;;5000483;28;20208;-46
2021/03/30 08:07:53;;;;;;;14.50;7.33;;;13.00;99.90;;;;;;5017652;28;20289;-48
2021/03/30 08:10:28;;;;;;;13.67;7.43;;;13.10;99.90;;;;;;5023799;28;20196;-49
2021/03/30 08:13:24;;;;;;;15.17;7.17;;;13.20;99.90;;;;;;5021319;28;20253;-48
2021/03/30 08:15:51;;;;;;;13.43;7.80;;;13.30;99.90;;;;;;5025155;28;20188;-48
2021/03/30 08:18:19;;;;;;;9.37;6.90;;;13.40;99.90;;;;;;5020989;28;20219;-51
2021/03/30 08:20:54;;;;;;;15.43;7.07;;;13.40;99.90;;;;;;5009773;28;20215;-47
2021/03/30 08:23:21;;;;;;;12.47;7.53;;;13.50;99.90;;;;;;5021156;28;20231;-52
2021/03/30 08:25:50;;;;;;;12.27;7.00;;;13.50;99.90;;;;;;5021341;28;20203;-48
2021/03/30 08:28:59;;;;;;;14.10;8.00;;;13.60;99.90;;;;;;5024065;28;20223;-51
2021/03/30 08:31:27;;;;;;;16.30;6.43;;;13.70;99.90;;;;;;5002829;28;20223;-46
2021/03/30 08:33:56;;;;;;;14.67;7.13;;;13.80;99.90;;;;;;5019215;28;20562;-47
2021/03/30 08:36:25;;;;;;;10.70;7.23;;;13.80;99.90;;;;;;5007098;28;20677;-48
2021/03/30 08:38:53;;;;;;;17.00;7.80;;;13.90;99.90;;;;;;5017922;28;20231;-46
2021/03/30 08:41:55;;;;;;;10.10;7.13;;;14.00;99.90;;;;;;5019660;28;20218;-48
2021/03/30 08:44:40;;;;;;;15.23;7.10;;;14.10;99.90;;;;;;5020766;28;20382;-50
2021/03/30 08:47:08;;;;;;;15.30;6.93;;;14.20;99.90;;;;;;5020376;28;20700;-46
2021/03/30 08:49:38;;;;;;;13.77;7.37;;;14.30;99.90;;;;;;5005628;28;22557;-49
2021/03/30 08:52:07;;;;;;;14.13;8.47;;;14.30;99.90;;;;;;5019787;28;20358;-48
2021/03/30 08:54:35;;;;;;;14.03;7.30;;;14.30;99.90;;;;;;5030463;28;20215;-49
2021/03/30 08:57:04;;;;;;;12.47;7.93;;;14.40;99.90;;;;;;5025136;28;20226;-49
2021/03/30 08:59:32;;;;;;;14.30;7.23;;;14.50;99.90;;;;;;5016093;28;20328;-47
2021/03/30 09:02:04;;;;;;;13.73;7.20;;;14.50;99.90;;;;;;5004971;28;20271;-49
2021/03/30 09:04:33;;;;;;;16.60;7.33;;;14.60;99.90;;;;;;5008273;28;21136;-45
2021/03/30 09:06:59;;;;;;;9.50;6.70;;;14.60;99.90;;;;;;5010456;28;20789;-49
2021/03/30 09:09:33;;;;;;;11.33;6.70;;;14.70;99.90;;;;;;5017708;28;20208;-53
2021/03/30 09:12:00;;;;;;;10.23;6.90;;;14.80;99.90;;;;;;5005230;28;20287;-47
2021/03/30 09:14:27;;;;;;;8.77;5.90;;;14.80;99.90;;;;;;5006548;28;20203;-51
2021/03/30 09:17:04;;;;;;;9.33;6.10;;;14.90;99.90;;;;;;5020161;28;20211;-47
2021/03/30 09:19:32;;;;;;;11.47;6.70;;;14.90;99.90;;;;;;5020150;28;20200;-48
2021/03/30 09:22:01;;;;;;;9.17;6.73;;;15.00;99.90;;;;;;5010788;28;20204;-51
2021/03/30 09:27:11;;;;;;;16.30;6.67;;;15.10;99.90;;;;;;5017678;28;20228;-46
2021/03/30 09:29:37;;;;;;;10.43;6.73;;;15.10;99.90;;;;;;5020547;28;20275;-46
2021/03/30 09:32:07;;;;;;;14.83;7.33;;;15.20;99.90;;;;;;5019802;28;20208;-46
2021/03/30 09:34:33;;;;;;;13.60;7.13;;;15.30;99.90;;;;;;5020616;28;20846;-51
2021/03/30 09:37:00;;;;;;;10.37;7.07;;;15.30;99.90;;;;;;5038476;28;20204;-50
2021/03/30 09:39:28;;;;;;;8.67;6.17;;;15.40;99.90;;;;;;5006400;28;20258;-53
2021/03/30 09:41:56;;;;;;;9.53;6.27;;;15.50;99.90;;;;;;5018740;28;20318;-48
2021/03/30 09:44:24;;;;;;;10.40;6.17;;;15.60;99.90;;;;;;5020698;28;20246;-50
2021/03/30 09:46:52;;;;;;;10.07;6.57;;;15.70;99.90;;;;;;5022245;28;20239;-48
2021/03/30 09:49:23;;;;;;;8.87;6.07;;;15.80;99.90;;;;;;5016254;28;20228;-49
2021/03/30 09:51:50;;;;;;;8.40;5.97;;;15.80;99.90;;;;;;5021969;28;20258;-48
2021/03/30 09:54:21;;;;;;;10.77;5.60;;;15.80;99.90;;;;;;5008089;28;20238;-51
2021/03/30 09:56:48;;;;;;;8.57;5.73;;;15.80;99.90;;;;;;5018630;28;20258;-47
2021/03/30 09:59:18;;;;;;;8.17;5.90;;;15.90;99.90;;;;;;5022652;28;20224;-46
2021/03/30 10:01:45;;;;;;;8.00;6.03;;;16.00;99.90;;;;;;5022579;28;20184;-47
2021/03/30 10:04:11;;;;;;;10.50;6.17;;;16.00;99.90;;;;;;5020319;28;20208;-49
2021/03/30 10:06:38;;;;;;;7.30;5.43;;;16.10;99.90;;;;;;5020591;28;20258;-47
2021/03/30 10:09:06;;;;;;;9.00;6.00;;;16.10;99.90;;;;;;5009939;28;20220;-52
2021/03/30 10:11:32;;;;;;;6.00;5.40;;;16.10;99.90;;;;;;5019281;28;20200;-48
2021/03/30 10:14:17;;;;;;;9.57;5.93;;;16.20;99.90;;;;;;5018869;28;20208;-47
2021/03/30 10:16:44;;;;;;;9.83;6.23;;;16.20;99.90;;;;;;5021152;28;20188;-49
2021/03/30 10:19:11;;;;;;;7.83;5.43;;;16.30;99.90;;;;;;5023170;28;20335;-49
2021/03/30 10:21:38;;;;;;;8.97;5.43;;;16.30;99.90;;;;;;5015178;28;20211;-48
2021/03/30 10:24:11;;;;;;;7.20;5.90;;;16.40;99.90;;;;;;5009794;28;20635;-50
2021/03/30 10:26:38;;;;;;;10.83;6.60;;;16.50;99.90;;;;;;5017889;28;20209;-48
2021/03/30 10:29:08;;;;;;;10.73;6.40;;;16.60;99.90;;;;;;5017645;28;20215;-51
2021/03/30 10:31:38;;;;;;;7.77;5.80;;;16.70;99.90;;;;;;5019371;28;20954;-48
2021/03/30 10:34:21;;;;;;;7.53;6.07;;;16.70;99.90;;;;;;5023280;28;20246;-46
2021/03/30 10:36:50;;;;;;;8.87;6.00;;;16.70;99.90;;;;;;5019281;28;20280;-47
2021/03/30 10:39:16;;;;;;;7.83;5.80;;;16.80;99.90;;;;;;5017061;28;20208;-45
2021/03/30 10:41:44;;;;;;;8.10;5.50;;;16.80;99.90;;;;;;5012421;28;20210;-47
2021/03/30 10:44:14;;;;;;;8.30;5.63;;;16.90;99.90;;;;;;5020888;28;20200;-49
2021/03/30 10:46:42;;;;;;;8.00;5.20;;;17.00;99.90;;;;;;5015560;28;20208;-50
2021/03/30 10:49:08;;;;;;;6.93;5.90;;;17.00;99.90;;;;;;5022788;28;20282;-50
2021/03/30 10:51:38;;;;;;;6.67;4.87;;;17.00;99.90;;;;;;5014332;28;20192;-47
2021/03/30 10:54:07;;;;;;;5.50;4.87;;;17.10;99.90;;;;;;5023000;28;20188;-48
2021/03/30 10:56:34;;;;;;;9.40;5.17;;;17.20;99.90;;;;;;4998535;28;20266;-51
2021/03/30 10:59:06;;;;;;;8.83;4.80;;;17.30;99.90;;;;;;5019635;28;20294;-50
2021/03/30 11:01:32;;;;;;;9.13;5.33;;;17.40;99.90;;;;;;5003637;28;20201;-48
2021/03/30 11:03:58;;;;;;;8.20;5.90;;;17.30;99.90;;;;;;5003266;28;20201;-49
2021/03/30 11:06:25;;;;;;;7.87;5.07;;;17.30;99.90;;;;;;5010934;28;20581;-53
2021/03/30 11:08:51;;;;;;;6.23;4.20;;;17.40;99.90;;;;;;5007134;28;20224;-51
2021/03/30 11:11:18;;;;;;;7.63;5.47;;;17.40;99.90;;;;;;5004393;28;20298;-50
2021/03/30 11:13:44;;;;;;;9.57;5.13;;;17.40;99.90;;;;;;5020206;28;20441;-46
2021/03/30 11:16:10;;;;;;;5.50;4.90;;;17.50;99.90;;;;;;5018576;28;20227;-48
2021/03/30 11:18:37;;;;;;;8.00;5.47;;;17.60;99.90;;;;;;5018474;28;20212;-47
2021/03/30 11:21:03;;;;;;;9.50;5.10;;;17.70;99.90;;;;;;5022706;28;20736;-51
2021/03/30 11:23:29;;;;;;;9.03;5.23;;;17.70;99.90;;;;;;5013597;28;20208;-51
2021/03/30 11:25:56;;;;;;;8.83;5.30;;;17.60;99.90;;;;;;5005200;28;20217;-50
2021/03/30 11:28:23;;;;;;;8.33;4.97;;;17.70;99.90;;;;;;5017314;28;20223;-51
2021/03/30 11:30:53;;;;;;;6.17;4.50;;;17.70;99.90;;;;;;5016345;28;20196;-49
2021/03/30 11:33:21;;;;;;;6.37;4.93;;;17.70;99.90;;;;;;5021145;28;20564;-50
2021/03/30 11:35:49;;;;;;;9.57;5.83;;;17.70;99.90;;;;;;5020693;28;20192;-49
2021/03/30 11:38:15;;;;;;;6.67;4.63;;;17.80;99.90;;;;;;5020018;28;20208;-49
2021/03/30 11:40:42;;;;;;;5.87;4.87;;;17.80;99.90;;;;;;5009720;28;20228;-46
2021/03/30 11:43:09;;;;;;;7.87;5.77;;;17.90;99.90;;;;;;5026457;28;20650;-50
2021/03/30 11:45:36;;;;;;;13.23;6.00;;;17.90;99.90;;;;;;5022261;28;20956;-46
2021/03/30 11:48:03;;;;;;;7.50;5.37;;;17.90;99.90;;;;;;5022111;28;20353;-45
2021/03/30 11:50:31;;;;;;;8.10;5.77;;;18.00;99.90;;;;;;5022412;28;20200;-50
2021/03/30 11:52:58;;;;;;;13.87;5.30;;;18.10;99.90;;;;;;5025883;28;20196;-47
2021/03/30 11:55:26;;;;;;;7.97;5.17;;;18.10;99.90;;;;;;5018408;28;20218;-50
2021/03/30 11:57:53;;;;;;;7.50;5.30;;;18.10;99.90;;;;;;5011458;28;20200;-49
2021/03/30 12:00:20;;;;;;;5.20;4.70;;;18.10;99.90;;;;;;5023851;28;20203;-51
2021/03/30 12:02:47;;;;;;;8.50;5.13;;;18.20;99.90;;;;;;5019811;28;20191;-46
2021/03/30 12:05:14;;;;;;;7.17;5.43;;;18.30;99.90;;;;;;5023453;28;20283;-51
2021/03/30 12:07:40;;;;;;;9.47;5.80;;;18.30;99.90;;;;;;5023232;28;20242;-48
2021/03/30 12:10:08;;;;;;;8.03;4.77;;;18.30;99.90;;;;;;5021965;28;20228;-49
2021/03/30 12:12:34;;;;;;;6.53;4.30;;;18.40;99.90;;;;;;5007779;28;20212;-46
2021/03/30 12:15:01;;;;;;;7.03;5.03;;;18.50;99.90;;;;;;5025269;28;20231;-45
2021/03/30 12:17:27;;;;;;;4.97;4.47;;;18.80;99.90;;;;;;5018604;28;20196;-49
2021/03/30 12:19:54;;;;;;;6.93;4.87;;;18.80;99.90;;;;;;5020912;28;20584;-47
2021/03/30 12:22:21;;;;;;;4.60;4.20;;;18.80;99.90;;;;;;5022956;28;20352;-48
2021/03/30 12:24:47;;;;;;;6.37;4.90;;;18.90;99.90;;;;;;5023010;28;20200;-45
2021/03/30 12:27:13;;;;;;;5.47;4.43;;;19.00;99.90;;;;;;5018114;28;20220;-45
2021/03/30 12:29:40;;;;;;;5.80;3.90;;;19.00;99.90;;;;;;5012705;28;20235;-50
2021/03/30 12:32:08;;;;;;;4.17;3.40;;;19.10;99.90;;;;;;5026156;28;20196;-51
2021/03/30 12:34:34;;;;;;;5.00;3.50;;;19.20;99.40;;;;;;5017344;28;20919;-46
2021/03/30 12:37:02;;;;;;;6.67;4.40;;;19.20;98.60;;;;;;5026120;28;20521;-50
2021/03/30 12:39:29;;;;;;;6.47;3.83;;;19.20;98.70;;;;;;5021549;28;20711;-50
2021/03/30 12:41:55;;;;;;;8.00;4.37;;;19.20;99.30;;;;;;5020796;28;20707;-45
2021/03/30 12:44:21;;;;;;;5.07;3.53;;;19.30;98.50;;;;;;5008929;28;20208;-50
2021/03/30 12:46:47;;;;;;;3.53;3.20;;;19.30;97.30;;;;;;5024046;28;20191;-48
2021/03/30 12:49:14;;;;;;;6.03;4.33;;;19.20;97.00;;;;;;5019873;28;20235;-45
2021/03/30 12:51:41;;;;;;;7.83;3.40;;;19.30;97.70;;;;;;5023055;28;20645;-47
2021/03/30 12:54:08;;;;;;;7.80;3.50;;;19.50;94.80;;;;;;5025870;28;20188;-51
2021/03/30 12:56:34;;;;;;;6.37;4.47;;;19.60;96.00;;;;;;5016954;28;20250;-48